createdAt,value
2023-01-30T00:00:29.812Z,100957.69
2023-01-30T00:03:19.655Z,100954.94
2023-01-30T00:06:08.561Z,100954.84
2023-01-30T00:08:57.105Z,100945.47
2023-01-30T00:11:46.750Z,100934.81
2023-01-30T00:14:35.261Z,100925.81
2023-01-30T00:17:23.911Z,100928.69
2023-01-30T00:20:15.755Z,100933.72
2023-01-30T00:23:04.454Z,100908.66
2023-01-30T00:25:53.167Z,100912.97
2023-01-30T00:28:41.906Z,100953.03
2023-01-30T00:31:30.456Z,100971.00
2023-01-30T00:34:19.096Z,100992.94
2023-01-30T00:37:08.955Z,100981.66
2023-01-30T00:39:57.581Z,100989.00
2023-01-30T00:43:03.368Z,101005.41
2023-01-30T00:46:10.971Z,101006.81
2023-01-30T00:48:59.521Z,101006.47
2023-01-30T00:51:48.102Z,100992.59
2023-01-30T00:54:37.975Z,100993.06
2023-01-30T00:57:26.466Z,100989.34
2023-01-30T01:00:20.923Z,100993.91
2023-01-30T01:03:09.580Z,100929.56
2023-01-30T01:05:58.207Z,100996.81
2023-01-30T01:08:46.761Z,101003.50
2023-01-30T01:11:37.176Z,101002.81
2023-01-30T01:14:25.797Z,101007.94
2023-01-30T01:17:14.529Z,101017.16
2023-01-30T01:20:02.995Z,101015.13
2023-01-30T01:22:54.277Z,101018.13
2023-01-30T01:25:42.763Z,101021.22
2023-01-30T01:28:32.740Z,100900.25
2023-01-30T01:31:21.235Z,100997.75
2023-01-30T01:34:09.862Z,100994.28
2023-01-30T01:36:58.334Z,100970.88
2023-01-30T01:40:04.431Z,100977.47
2023-01-30T01:42:52.999Z,100979.53
2023-01-30T01:45:43.166Z,100939.97
2023-01-30T01:48:33.954Z,100924.63
2023-01-30T01:51:27.880Z,100929.78
2023-01-30T01:54:19.335Z,100920.53
2023-01-30T01:57:11.927Z,100925.47
2023-01-30T02:00:05.659Z,100922.34
2023-01-30T02:02:58.229Z,100926.31
2023-01-30T02:05:49.507Z,100931.25
2023-01-30T02:08:39.994Z,100933.75
2023-01-30T02:11:31.690Z,100932.91
2023-01-30T02:14:20.900Z,100832.28
2023-01-30T02:17:09.468Z,100884.34
2023-01-30T02:20:05.476Z,100831.09
2023-01-30T02:23:26.940Z,100883.66
2023-01-30T02:26:35.497Z,100893.97
2023-01-30T02:29:57.247Z,100897.78
2023-01-30T02:32:52.866Z,100879.06
2023-01-30T02:35:45.289Z,100868.28
2023-01-30T02:38:41.547Z,100854.28
2023-01-30T02:41:37.794Z,100836.88
2023-01-30T02:44:31.084Z,100811.94
2023-01-30T02:47:23.136Z,100784.34
2023-01-30T02:50:17.836Z,100779.44
2023-01-30T02:53:07.158Z,100756.19
2023-01-30T02:55:55.584Z,100760.84
2023-01-30T02:58:46.911Z,100698.31
2023-01-30T03:01:54.158Z,100780.94
2023-01-30T03:05:06.699Z,100778.97
2023-01-30T03:08:05.652Z,100747.06
2023-01-30T03:10:59.832Z,100697.53
2023-01-30T03:13:52.418Z,100706.22
2023-01-30T03:16:41.894Z,100725.69
2023-01-30T03:19:30.617Z,100731.44
2023-01-30T03:22:19.028Z,100753.00
2023-01-30T03:25:10.116Z,100767.91
2023-01-30T03:27:58.824Z,100765.53
2023-01-30T03:30:47.398Z,100766.25
2023-01-30T03:33:35.876Z,100780.28
2023-01-30T03:36:24.776Z,100781.25
2023-01-30T03:39:13.621Z,100790.47
2023-01-30T03:42:03.409Z,100770.06
2023-01-30T03:44:51.889Z,100788.91
2023-01-30T03:47:40.341Z,100792.47
2023-01-30T03:50:29.355Z,100791.84
2023-01-30T03:53:17.840Z,100799.91
2023-01-30T03:56:06.918Z,100787.88
2023-01-30T03:58:56.744Z,100780.91
2023-01-30T04:01:45.252Z,100785.06
2023-01-30T04:04:33.724Z,100788.69
2023-01-30T04:07:22.166Z,100760.03
2023-01-30T04:10:11.950Z,100789.34
2023-01-30T04:13:00.423Z,100794.03
2023-01-30T04:15:50.246Z,100794.38
2023-01-30T04:18:38.666Z,100786.44
2023-01-30T04:21:27.110Z,100788.97
2023-01-30T04:24:15.599Z,100795.13
2023-01-30T04:27:04.130Z,100808.47
2023-01-30T04:29:52.631Z,100800.72
2023-01-30T04:32:42.445Z,100797.06
2023-01-30T04:35:30.870Z,100791.31
2023-01-30T04:38:19.421Z,100793.81
2023-01-30T04:41:07.955Z,100784.19
2023-01-30T04:43:56.396Z,100789.72
2023-01-30T04:46:44.923Z,100790.13
2023-01-30T04:49:34.799Z,100773.53
2023-01-30T04:52:23.241Z,100776.44
2023-01-30T04:55:11.992Z,100778.91
2023-01-30T04:58:00.502Z,100767.34
2023-01-30T05:00:49.321Z,100754.28
2023-01-30T05:03:37.845Z,100762.84
2023-01-30T05:06:27.768Z,100756.00
2023-01-30T05:09:16.407Z,100764.25
2023-01-30T05:12:05.229Z,100755.88
2023-01-30T05:14:53.683Z,100748.72
2023-01-30T05:17:44.439Z,100701.56
2023-01-30T05:20:33.186Z,100762.09
2023-01-30T05:23:23.069Z,100750.25
2023-01-30T05:26:12.606Z,100744.06
2023-01-30T05:29:01.190Z,100738.38
2023-01-30T05:31:49.747Z,100747.28
2023-01-30T05:34:38.249Z,100739.38
2023-01-30T05:37:26.714Z,100732.38
2023-01-30T05:40:16.728Z,100729.22
2023-01-30T05:43:05.207Z,100729.47
2023-01-30T05:45:54.427Z,100728.94
2023-01-30T05:48:42.862Z,100726.28
2023-01-30T05:51:31.789Z,100720.47
2023-01-30T05:54:20.262Z,100738.00
2023-01-30T05:57:10.165Z,100717.13
2023-01-30T05:59:58.604Z,100733.25
2023-01-30T06:02:47.181Z,100720.47
2023-01-30T06:05:38.567Z,100716.00
2023-01-30T06:08:27.064Z,100722.91
2023-01-30T06:11:16.594Z,100717.97
2023-01-30T06:14:06.428Z,100708.31
2023-01-30T06:16:54.975Z,100707.06
2023-01-30T06:19:43.539Z,100699.59
2023-01-30T06:22:32.007Z,100694.69
2023-01-30T06:25:20.772Z,100695.38
2023-01-30T06:28:09.362Z,100694.81
2023-01-30T06:30:59.355Z,100691.34
2023-01-30T06:33:49.383Z,100693.69
2023-01-30T06:36:37.854Z,100683.66
2023-01-30T06:39:26.341Z,100690.31
2023-01-30T06:42:14.777Z,100694.50
2023-01-30T06:45:03.622Z,100694.50
2023-01-30T06:47:54.512Z,100695.38
2023-01-30T06:50:43.022Z,100715.19
2023-01-30T06:53:31.456Z,100701.91
2023-01-30T06:56:19.925Z,100719.63
2023-01-30T06:59:08.520Z,100703.75
2023-01-30T07:01:57.046Z,100707.06
2023-01-30T07:04:46.907Z,100720.75
2023-01-30T07:07:35.572Z,100599.94
2023-01-30T07:10:26.091Z,100736.34
2023-01-30T07:13:14.676Z,100741.25
2023-01-30T07:16:03.541Z,100656.03
2023-01-30T07:18:52.026Z,100733.97
2023-01-30T07:21:41.941Z,100751.13
2023-01-30T07:24:30.528Z,100757.44
2023-01-30T07:27:18.976Z,100759.13
2023-01-30T07:30:08.486Z,100760.00
2023-01-30T07:32:58.696Z,100762.31
2023-01-30T07:35:47.175Z,100760.44
2023-01-30T07:38:37.033Z,100754.25
2023-01-30T07:41:25.467Z,100789.06
2023-01-30T07:44:14.599Z,100765.38
2023-01-30T07:47:03.213Z,100743.63
2023-01-30T07:49:51.736Z,100736.41
2023-01-30T07:52:40.409Z,100704.94
2023-01-30T07:55:30.522Z,100699.94
2023-01-30T07:58:19.010Z,100702.47
2023-01-30T08:01:07.729Z,100696.22
2023-01-30T08:03:56.232Z,100706.94
2023-01-30T08:06:44.778Z,100718.38
2023-01-30T08:09:33.264Z,100705.28
2023-01-30T08:12:23.096Z,100706.94
2023-01-30T08:15:12.070Z,100702.25
2023-01-30T08:18:00.785Z,100700.69
2023-01-30T08:20:49.382Z,100702.91
2023-01-30T08:23:37.937Z,100724.53
2023-01-30T08:26:26.543Z,100739.00
2023-01-30T08:29:16.443Z,100719.09
2023-01-30T08:32:05.229Z,100716.41
2023-01-30T08:34:53.701Z,100718.53
2023-01-30T08:37:42.956Z,100700.59
2023-01-30T08:40:31.465Z,100705.59
2023-01-30T08:43:19.998Z,100690.81
2023-01-30T08:46:09.902Z,100683.03
2023-01-30T08:48:58.507Z,100704.47
2023-01-30T08:51:47.054Z,100654.72
2023-01-30T08:54:35.606Z,100680.53
2023-01-30T08:57:24.100Z,100673.41
2023-01-30T09:00:13.359Z,100678.31
2023-01-30T09:03:03.399Z,100675.06
2023-01-30T09:05:55.643Z,100683.88
2023-01-30T09:08:44.146Z,100680.81
2023-01-30T09:11:32.682Z,100694.75
2023-01-30T09:14:21.259Z,100693.63
2023-01-30T09:17:09.772Z,100695.44
2023-01-30T09:19:59.685Z,100696.59
2023-01-30T09:22:48.201Z,100691.13
2023-01-30T09:25:36.697Z,100689.31
2023-01-30T09:28:25.152Z,100687.78
2023-01-30T09:31:13.738Z,100698.97
2023-01-30T09:34:02.329Z,100694.78
2023-01-30T09:36:52.283Z,100689.09
2023-01-30T09:39:40.982Z,100683.34
2023-01-30T09:42:51.877Z,100682.94
2023-01-30T09:45:46.785Z,100683.66
2023-01-30T09:48:39.683Z,100684.34
2023-01-30T09:51:44.940Z,100674.59
2023-01-30T09:54:35.954Z,100634.31
2023-01-30T09:57:25.640Z,100661.94
2023-01-30T10:00:18.436Z,100659.97
2023-01-30T10:03:12.004Z,100631.28
2023-01-30T10:06:06.732Z,100660.53
2023-01-30T10:08:58.840Z,100661.78
2023-01-30T10:11:58.824Z,100651.47
2023-01-30T10:15:04.057Z,100634.06
2023-01-30T10:18:17.517Z,100645.47
2023-01-30T10:21:12.850Z,100642.69
2023-01-30T10:24:16.394Z,100559.53
2023-01-30T10:27:11.544Z,100654.53
2023-01-30T10:30:02.757Z,100635.72
2023-01-30T10:32:55.807Z,100617.19
2023-01-30T10:35:45.232Z,100617.63
2023-01-30T10:38:37.029Z,100599.88
2023-01-30T10:41:28.190Z,100609.78
2023-01-30T10:44:19.061Z,100612.72
2023-01-30T10:47:23.117Z,100610.50
2023-01-30T10:50:16.832Z,100625.53
2023-01-30T10:53:11.138Z,100630.13
2023-01-30T10:56:04.940Z,100615.38
2023-01-30T10:58:56.004Z,100633.63
2023-01-30T11:01:50.956Z,100626.22
2023-01-30T11:04:43.343Z,100628.72
2023-01-30T11:07:33.390Z,100641.81
2023-01-30T11:10:23.988Z,100632.06
2023-01-30T11:13:17.819Z,100612.53
2023-01-30T11:16:08.193Z,100576.22
2023-01-30T11:19:20.156Z,100616.44
2023-01-30T11:22:14.807Z,100600.00
2023-01-30T11:25:05.961Z,100610.47
2023-01-30T11:27:56.459Z,100623.84
2023-01-30T11:30:46.099Z,100610.19
2023-01-30T11:33:36.897Z,100594.56
2023-01-30T11:36:28.460Z,100589.97
2023-01-30T11:39:23.255Z,100599.44
2023-01-30T11:42:12.060Z,100605.59
2023-01-30T11:45:16.822Z,100612.53
2023-01-30T11:48:23.545Z,100517.31
2023-01-30T11:51:21.721Z,100605.97
2023-01-30T11:54:14.353Z,100577.03
2023-01-30T11:57:05.380Z,100604.47
2023-01-30T11:59:56.826Z,100617.69
2023-01-30T12:02:47.996Z,100606.28
2023-01-30T12:05:42.594Z,100593.91
2023-01-30T12:08:44.074Z,100595.97
2023-01-30T12:11:45.010Z,100577.88
2023-01-30T12:14:40.322Z,100599.88
2023-01-30T12:17:36.320Z,100601.56
2023-01-30T12:20:34.338Z,100596.13
2023-01-30T12:23:28.510Z,100614.38
2023-01-30T12:26:21.699Z,100599.47
2023-01-30T12:29:22.595Z,100603.94
2023-01-30T12:32:14.215Z,100600.56
2023-01-30T12:35:02.808Z,100603.38
2023-01-30T12:38:00.098Z,100601.44
2023-01-30T12:40:57.386Z,100577.19
2023-01-30T12:43:54.864Z,100589.19
2023-01-30T12:46:55.714Z,100596.56
2023-01-30T12:49:54.395Z,100615.22
2023-01-30T12:53:04.236Z,100615.94
2023-01-30T12:56:02.818Z,100618.44
2023-01-30T12:58:53.425Z,100622.19
2023-01-30T13:01:51.480Z,100610.34
2023-01-30T13:04:56.228Z,100631.41
2023-01-30T13:08:04.488Z,100628.47
2023-01-30T13:10:58.729Z,100624.16
2023-01-30T13:13:52.100Z,100631.41
2023-01-30T13:16:52.512Z,100621.09
2023-01-30T13:19:46.287Z,100612.59
2023-01-30T13:22:42.198Z,100631.53
2023-01-30T13:25:38.438Z,100618.16
2023-01-30T13:28:29.587Z,100606.47
2023-01-30T13:31:19.825Z,100631.81
2023-01-30T13:34:16.174Z,100594.50
2023-01-30T13:37:08.869Z,100640.44
2023-01-30T13:39:59.223Z,100653.13
2023-01-30T13:42:50.820Z,100658.00
2023-01-30T13:45:42.270Z,100660.38
2023-01-30T13:48:40.648Z,100666.50
2023-01-30T13:51:44.342Z,100669.56
2023-01-30T13:54:47.703Z,100671.13
2023-01-30T13:57:44.992Z,100640.03
2023-01-30T14:00:35.073Z,100678.66
2023-01-30T14:03:31.982Z,100684.91
2023-01-30T14:06:33.558Z,100702.31
2023-01-30T14:09:27.782Z,100704.00
2023-01-30T14:12:19.324Z,100711.66
2023-01-30T14:15:24.050Z,100696.75
2023-01-30T14:18:22.885Z,100697.03
2023-01-30T14:21:14.832Z,100698.13
2023-01-30T14:24:04.826Z,100690.91
2023-01-30T14:27:25.430Z,100684.50
2023-01-30T14:30:36.296Z,100683.75
2023-01-30T14:33:36.073Z,100684.31
2023-01-30T14:36:35.944Z,100699.94
2023-01-30T14:39:41.167Z,100704.84
2023-01-30T14:42:32.325Z,100698.13
2023-01-30T14:45:43.872Z,100702.59
2023-01-30T14:48:36.151Z,100693.69
2023-01-30T14:51:27.498Z,100690.75
2023-01-30T14:54:25.497Z,100699.25
2023-01-30T14:57:22.560Z,100700.63
2023-01-30T15:00:20.849Z,100704.25
2023-01-30T15:03:17.730Z,100679.88
2023-01-30T15:06:07.000Z,100715.13
2023-01-30T15:08:55.493Z,100727.41
2023-01-30T15:11:46.094Z,100724.88
2023-01-30T15:14:37.916Z,100735.78
2023-01-30T15:17:31.876Z,100735.06
2023-01-30T15:20:29.139Z,100729.63
2023-01-30T15:23:45.206Z,100726.56
2023-01-30T15:26:42.876Z,100749.84
2023-01-30T15:29:52.145Z,100748.28
2023-01-30T15:32:43.125Z,100744.53
2023-01-30T15:35:31.713Z,100739.09
2023-01-30T15:38:25.996Z,100725.94
2023-01-30T15:41:15.102Z,100728.06
2023-01-30T15:44:34.966Z,100754.97
2023-01-30T15:47:39.949Z,100755.25
2023-01-30T15:50:30.037Z,100768.38
2023-01-30T15:53:18.989Z,100766.44
2023-01-30T15:56:09.351Z,100763.38
2023-01-30T15:58:59.592Z,100783.16
2023-01-30T16:01:48.096Z,100781.91
2023-01-30T16:04:36.587Z,100783.59
2023-01-30T16:07:27.702Z,100796.00
2023-01-30T16:10:17.878Z,100792.09
2023-01-30T16:13:06.380Z,100785.81
2023-01-30T16:15:57.462Z,100785.56
2023-01-30T16:18:49.120Z,100781.78
2023-01-30T16:21:40.134Z,100786.53
2023-01-30T16:24:32.737Z,100790.00
2023-01-30T16:27:31.067Z,100811.66
2023-01-30T16:30:24.754Z,100810.78
2023-01-30T16:33:17.579Z,100801.84
2023-01-30T16:36:13.511Z,100809.97
2023-01-30T16:39:02.556Z,100809.97
2023-01-30T16:41:57.630Z,100830.75
2023-01-30T16:44:46.565Z,100831.88
2023-01-30T16:47:36.653Z,100839.16
2023-01-30T16:50:25.666Z,100782.06
2023-01-30T16:53:15.981Z,100846.50
2023-01-30T16:56:07.624Z,100863.25
2023-01-30T16:58:59.436Z,100853.22
2023-01-30T17:01:48.922Z,100841.91
2023-01-30T17:04:41.426Z,100875.25
2023-01-30T17:07:38.484Z,100874.84
2023-01-30T17:10:54.180Z,100876.81
2023-01-30T17:13:42.831Z,100877.09
2023-01-30T17:16:36.331Z,100861.19
2023-01-30T17:19:24.778Z,100879.47
2023-01-30T17:22:20.626Z,100868.88
2023-01-30T17:25:18.163Z,100851.84
2023-01-30T17:28:07.656Z,100855.03
2023-01-30T17:30:56.285Z,100869.97
2023-01-30T17:33:46.247Z,100878.34
2023-01-30T17:36:34.763Z,100890.75
2023-01-30T17:39:25.619Z,100888.69
2023-01-30T17:42:15.237Z,100897.47
2023-01-30T17:45:04.463Z,100908.38
2023-01-30T17:47:53.013Z,100908.66
2023-01-30T17:50:42.995Z,100928.72
2023-01-30T17:53:31.570Z,100928.03
2023-01-30T17:56:23.117Z,100944.78
2023-01-30T17:59:15.257Z,100944.34
2023-01-30T18:02:03.850Z,100957.75
2023-01-30T18:04:52.374Z,100963.34
2023-01-30T18:07:42.737Z,100968.38
2023-01-30T18:10:31.226Z,100968.81
2023-01-30T18:13:20.403Z,100975.78
2023-01-30T18:16:16.142Z,100978.44
2023-01-30T18:19:06.697Z,100987.06
2023-01-30T18:21:55.467Z,100982.34
2023-01-30T18:24:45.299Z,100980.25
2023-01-30T18:27:33.872Z,100982.34
2023-01-30T18:30:24.880Z,100990.59
2023-01-30T18:33:13.361Z,100989.59
2023-01-30T18:36:05.309Z,101001.88
2023-01-30T18:38:54.167Z,101002.03
2023-01-30T18:41:44.110Z,101008.63
2023-01-30T18:44:32.705Z,101001.06
2023-01-30T18:47:21.185Z,101010.41
2023-01-30T18:50:10.632Z,101018.53
2023-01-30T18:52:59.337Z,101023.56
2023-01-30T18:55:50.513Z,101021.88
2023-01-30T18:58:40.895Z,100953.16
2023-01-30T19:01:30.830Z,101054.69
2023-01-30T19:04:19.632Z,101038.22
2023-01-30T19:07:08.238Z,101041.41
2023-01-30T19:09:56.782Z,101041.00
2023-01-30T19:13:03.485Z,101042.53
2023-01-30T19:15:58.821Z,101043.66
2023-01-30T19:18:47.420Z,101033.34
2023-01-30T19:21:36.464Z,101030.13
2023-01-30T19:24:25.129Z,101032.06
2023-01-30T19:27:14.178Z,101034.88
2023-01-30T19:30:02.712Z,101048.97
2023-01-30T19:32:54.287Z,101036.81
2023-01-30T19:35:43.770Z,101039.47
2023-01-30T19:38:32.284Z,101036.25
2023-01-30T19:41:24.881Z,101051.78
2023-01-30T19:44:13.693Z,101054.28
2023-01-30T19:47:02.140Z,101056.81
2023-01-30T19:49:52.099Z,101064.63
2023-01-30T19:52:41.810Z,101064.47
2023-01-30T19:55:33.716Z,101064.34
2023-01-30T19:58:22.215Z,101067.13
2023-01-30T20:01:12.177Z,101085.84
2023-01-30T20:04:02.382Z,101074.69
2023-01-30T20:06:52.285Z,101061.41
2023-01-30T20:09:40.810Z,101079.84
2023-01-30T20:12:29.303Z,101084.44
2023-01-30T20:15:17.837Z,101091.75
2023-01-30T20:18:06.427Z,101090.88
2023-01-30T20:20:54.895Z,101086.56
2023-01-30T20:23:45.734Z,101103.88
2023-01-30T20:26:36.101Z,101106.53
2023-01-30T20:29:24.711Z,101105.00
2023-01-30T20:32:13.133Z,101103.59
2023-01-30T20:35:01.695Z,101101.38
2023-01-30T20:37:50.187Z,101101.22
2023-01-30T20:40:40.108Z,101120.38
2023-01-30T20:43:31.673Z,101122.31
2023-01-30T20:46:21.611Z,101115.75
2023-01-30T20:49:13.733Z,101115.91
2023-01-30T20:52:02.981Z,101119.38
2023-01-30T20:54:51.727Z,101116.34
2023-01-30T20:57:44.880Z,101130.28
2023-01-30T21:00:33.411Z,101132.13
2023-01-30T21:03:24.412Z,101143.56
2023-01-30T21:06:13.082Z,101147.63
2023-01-30T21:09:01.579Z,101146.81
2023-01-30T21:11:52.472Z,101144.41
2023-01-30T21:14:42.337Z,101151.25
2023-01-30T21:17:30.812Z,101161.19
2023-01-30T21:20:19.431Z,101158.53
2023-01-30T21:23:07.900Z,101164.25
2023-01-30T21:25:56.602Z,101168.16
2023-01-30T21:28:45.500Z,101172.63
2023-01-30T21:31:37.546Z,101164.53
2023-01-30T21:34:26.357Z,101160.75
2023-01-30T21:37:32.598Z,101166.06
2023-01-30T21:40:39.062Z,101182.03
2023-01-30T21:43:28.736Z,101172.09
2023-01-30T21:46:17.659Z,101187.88
2023-01-30T21:49:07.773Z,101186.75
2023-01-30T21:51:57.155Z,101192.06
2023-01-30T21:54:45.784Z,101191.09
2023-01-30T21:57:34.300Z,101209.94
2023-01-30T22:00:22.805Z,101201.44
2023-01-30T22:03:11.336Z,101206.88
2023-01-30T22:06:01.285Z,101212.63
2023-01-30T22:08:49.751Z,101221.00
2023-01-30T22:11:38.781Z,101227.72
2023-01-30T22:14:27.511Z,101220.59
2023-01-30T22:17:16.159Z,101222.53
2023-01-30T22:20:05.570Z,101223.66
2023-01-30T22:22:55.418Z,101230.66
2023-01-30T22:25:43.921Z,101225.06
2023-01-30T22:28:32.805Z,101162.13
2023-01-30T22:31:21.626Z,101220.31
2023-01-30T22:34:10.172Z,101210.13
2023-01-30T22:36:58.822Z,101213.91
2023-01-30T22:39:48.690Z,101215.84
2023-01-30T22:42:37.214Z,101214.13
2023-01-30T22:45:25.803Z,101172.88
2023-01-30T22:48:16.082Z,101204.31
2023-01-30T22:51:05.807Z,101216.91
2023-01-30T22:53:55.706Z,101222.78
2023-01-30T22:56:47.525Z,101078.66
2023-01-30T22:59:36.033Z,101215.94
2023-01-30T23:02:24.593Z,101220.56
2023-01-30T23:05:13.095Z,101226.72
2023-01-30T23:08:01.567Z,101233.38
2023-01-30T23:10:50.041Z,101220.25
2023-01-30T23:13:41.574Z,101226.72
2023-01-30T23:16:30.053Z,101223.50
2023-01-30T23:19:17.572Z,101230.25
2023-01-30T23:22:06.035Z,101226.59
2023-01-30T23:24:54.618Z,101224.47
2023-01-30T23:27:43.117Z,101226.59
2023-01-30T23:30:33.044Z,101213.19
2023-01-30T23:33:21.536Z,101194.59
2023-01-30T23:36:11.735Z,101134.84
2023-01-30T23:39:01.353Z,101205.34
2023-01-30T23:41:51.369Z,101198.59
2023-01-30T23:44:40.213Z,101189.97
2023-01-30T23:47:30.165Z,101186.91
2023-01-30T23:50:18.835Z,101177.66
2023-01-30T23:53:08.843Z,101140.00
2023-01-30T23:55:57.363Z,101178.31
2023-01-30T23:58:46.582Z,101154.50
